Latest Weather Observations for Cowra

IDN60801

Issued at 1:03 pm EST Sunday 24 May 2015 (issued every 30 minutes, with the page automatically refreshed every 10 minutes)

About weather observations | Map of weather stations | Latest weather observations for NSW | Other Formats
Station Details ID: 065111 Name: COWRA AIRPORT AWS Lat: -33.84 Lon: 148.65 Height: 296.5 m
Data from the previous 72 hours. | See also: Recent months at Cowra
Date/Time
EST
Temp
°C
App
Temp
°C
Dew
Point
Rel
Hum
%
Delta-T
°C
Wind Press
QNH
hPa
Press
MSL
hPa
Rain
since 9 am
mm
Dir
 
Spd
km/h
Gust
km/h
Spd
kts
Gust
kts
24/01:00pm 15.2 13.3 7.7 61 3.8 N 7 11 4 6 1031.3 - 0.0
24/12:30pm 13.7 11.7 7.2 65 3.2 N 7 11 4 6 1031.8 - 0.0
24/12:00pm 12.4 11.4 7.5 72 2.4 SW 2 7 1 4 1032.2 1032.5 0.0
24/11:30am 11.3 9.8 6.6 73 2.3 S 4 7 2 4 1032.4 - 0.0
24/11:00am 10.2 8.0 6.4 77 1.8 S 7 9 4 5 1032.8 - 0.0
24/10:30am 9.2 6.9 5.9 80 1.5 S 7 9 4 5 1033.0 - 0.0
24/10:00am 7.6 5.3 5.9 89 0.8 S 7 9 4 5 1033.1 - 0.0
24/09:30am 6.2 3.6 4.4 88 0.8 S 7 11 4 6 1032.9 - 0.0
24/09:00am 4.7 2.0 3.7 93 0.4 SSE 7 9 4 5 1032.7 1032.9 0.0
24/08:30am 3.7 0.5 3.1 96 0.2 SE 9 13 5 7 1032.5 - 0.0
24/08:00am 2.4 -0.4 2.3 99 0.0 S 6 7 3 4 1032.4 - 0.0
24/07:30am 1.0 -2.2 0.9 99 0.0 S 7 9 4 5 1032.2 - 0.0
24/07:00am 1.2 -2.3 1.1 99 0.0 SSE 9 11 5 6 1031.9 - 0.0
24/06:30am 0.1 -1.9 0.0 99 0.0 CALM 0 0 0 0 1031.7 - 0.0
24/06:00am 0.2 -2.9 0.1 99 0.0 SE 6 7 3 4 1031.2 1031.4 0.0
24/05:30am 1.4 -1.5 1.3 99 0.0 S 6 7 3 4 1031.1 - 0.0
24/05:00am 1.6 -1.5 1.5 99 0.0 SSE 7 9 4 5 1030.7 - 0.0
24/04:30am 1.3 -0.5 1.2 99 0.0 CALM 0 0 0 0 1030.7 - 0.0
24/04:00am 1.7 -1.4 1.6 99 0.0 S 7 9 4 5 1030.6 - 0.0
24/03:30am 1.7 -1.4 1.6 99 0.0 S 7 9 4 5 1030.6 - 0.0
24/03:00am 2.1 0.4 2.0 99 0.0 CALM 0 0 0 0 1030.5 1030.7 0.0
24/02:30am 2.1 0.4 1.7 97 0.2 CALM 0 4 0 2 1030.6 - 0.0
24/02:00am 2.6 0.9 2.0 96 0.2 CALM 0 6 0 3 1030.5 - 0.0
24/01:30am 2.8 -0.3 1.3 90 0.6 SSE 7 7 4 4 1030.4 - 0.0
24/01:00am 4.5 1.9 4.2 98 0.1 SSE 7 7 4 4 1030.4 - 0.0
24/12:30am 3.6 0.4 2.9 95 0.3 S 9 11 5 6 1030.6 - 0.0
24/12:00am 3.4 0.5 2.5 94 0.4 S 7 7 4 4 1030.4 1030.6 0.0
 
Date/Time
EST
Temp
°C
App
Temp
°C
Dew
Point
Rel
Hum
%
Delta-T
°C
Wind Press
QNH
hPa
Press
MSL
hPa
Rain
since 9 am
mm
Dir
 
Spd
km/h
Gust
km/h
Spd
kts
Gust
kts
23/11:30pm 4.1 1.3 3.2 94 0.4 S 7 7 4 4 1030.3 - 0.0
23/11:00pm 4.9 2.4 3.6 91 0.6 SSE 6 7 3 4 1030.2 - 0.0
23/10:30pm 5.1 2.6 3.6 90 0.6 ESE 6 9 3 5 1030.2 - 0.0
23/10:00pm 5.5 3.1 4.5 93 0.4 ESE 6 9 3 5 1030.3 - 0.0
23/09:30pm 4.6 3.1 3.1 90 0.6 CALM 0 0 0 0 1030.5 - 0.0
23/09:00pm 7.5 4.7 5.1 85 1.1 SSE 9 11 5 6 1030.3 1030.5 0.0
23/08:30pm 7.8 5.4 5.4 85 1.1 SSE 7 11 4 6 1030.3 - 0.0
23/08:00pm 8.2 7.2 5.5 83 1.2 CALM 0 0 0 0 1030.0 - 0.0
23/07:30pm 6.9 5.7 4.6 85 1.0 CALM 0 6 0 3 1029.8 - 0.0
23/07:00pm 9.6 7.4 5.4 75 1.9 SSE 6 7 3 4 1029.6 - 0.0
23/06:30pm 9.8 7.3 4.0 67 2.6 SSE 6 7 3 4 1029.6 - 0.0
23/06:00pm 11.7 8.9 5.3 65 3.0 S 9 9 5 5 1029.4 1029.6 0.0
23/05:30pm 12.5 10.2 5.7 63 3.2 S 7 9 4 5 1029.2 - 0.0
23/05:00pm 12.8 10.0 5.2 60 3.6 SSW 9 13 5 7 1029.1 - 0.0
23/04:30pm 14.5 12.2 5.6 55 4.3 SSW 7 13 4 7 1029.0 - 0.0
23/04:00pm 15.0 12.2 5.2 52 4.7 SSW 9 15 5 8 1029.0 - 0.0
23/03:30pm 15.0 12.8 6.0 55 4.4 ESE 7 11 4 6 1028.8 - 0.0
23/03:00pm 14.9 11.8 5.4 53 4.5 SE 11 15 6 8 1028.9 1029.2 0.0
23/02:30pm 14.5 12.0 5.0 53 4.5 S 7 13 4 7 1028.9 - 0.0
23/02:00pm 14.4 12.0 5.2 54 4.4 SSW 7 17 4 9 1029.0 - 0.0
23/01:30pm 14.1 11.7 5.2 55 4.2 SSW 7 13 4 7 1029.3 - 0.0
23/01:00pm 13.7 11.8 4.8 55 4.2 S 4 9 2 5 1029.5 - 0.0
23/12:30pm 13.5 12.0 4.9 56 4.1 SSE 2 7 1 4 1029.7 - 0.0
23/12:00pm 12.8 10.6 5.5 61 3.4 SSW 6 9 3 5 1030.0 1030.3 0.0
23/11:30am 12.8 11.8 5.5 61 3.5 CALM 0 7 0 4 1030.5 - 0.0
23/11:00am 11.6 9.3 5.5 66 2.9 S 7 11 4 6 1030.8 - 0.0
23/10:30am 11.1 9.3 5.4 68 2.7 SE 4 9 2 5 1031.1 - 0.0
23/10:00am 9.8 7.3 5.0 72 2.2 S 7 11 4 6 1031.2 - 0.0
23/09:30am 8.7 6.2 4.5 75 1.9 S 7 11 4 6 1031.2 - 0.0
23/09:00am 7.2 6.0 4.5 83 1.2 CALM 0 0 0 0 1031.0 1031.2 0.0
23/08:30am 6.2 4.9 3.9 85 1.0 CALM 0 0 0 0 1030.8 - 0.0
23/08:00am 4.3 2.9 3.6 95 0.3 CALM 0 0 0 0 1030.7 - 0.0
23/07:30am 2.7 1.0 1.7 93 0.4 CALM 0 0 0 0 1030.4 - 0.0
23/07:00am 2.8 1.1 1.9 94 0.4 CALM 0 0 0 0 1030.0 - 0.0
23/06:30am 3.8 0.9 2.8 93 0.4 S 7 9 4 5 1029.6 - 0.0
23/06:00am 3.8 0.6 2.8 93 0.4 SE 9 11 5 6 1029.3 1029.6 0.0
23/05:30am 4.4 1.6 2.9 90 0.6 ESE 7 9 4 5 1029.1 - 0.0
23/05:00am 4.1 1.3 3.2 94 0.4 SSE 7 11 4 6 1028.8 - 0.0
23/04:30am 3.7 1.1 3.0 95 0.3 S 6 9 3 5 1028.5 - 0.0
23/04:00am 3.2 1.5 1.9 91 0.5 CALM 0 6 0 3 1028.3 - 0.0
23/03:30am 4.4 1.5 2.4 87 0.8 ESE 7 9 4 5 1028.3 - 0.0
23/03:00am 5.0 2.5 3.5 90 0.6 SE 6 7 3 4 1028.5 1028.7 0.0
23/02:30am 4.9 2.4 3.7 92 0.5 SSE 6 7 3 4 1028.8 - 0.0
23/02:00am 4.4 2.5 2.8 89 0.7 S 2 6 1 3 1028.7 - 0.0
23/01:30am 5.1 2.2 2.5 83 1.1 SE 7 13 4 7 1028.6 - 0.0
23/01:00am 6.1 3.0 3.8 85 1.0 ESE 9 13 5 7 1028.5 - 0.0
23/12:30am 5.5 4.0 3.2 85 1.0 CALM 0 0 0 0 1028.4 - 0.0
23/12:00am 5.7 4.4 4.2 90 0.6 CALM 0 0 0 0 1028.4 1028.6 0.0
 
Date/Time
EST
Temp
°C
App
Temp
°C
Dew
Point
Rel
Hum
%
Delta-T
°C
Wind Press
QNH
hPa
Press
MSL
hPa
Rain
since 9 am
mm
Dir
 
Spd
km/h
Gust
km/h
Spd
kts
Gust
kts
22/11:30pm 5.4 4.0 3.6 88 0.8 CALM 0 0 0 0 1028.2 - 0.0
22/11:00pm 7.3 4.1 3.2 75 1.8 SSE 9 13 5 7 1027.9 - 0.0
22/10:30pm 7.9 5.6 4.8 81 1.4 SSE 6 9 3 5 1027.7 - 0.0
22/10:00pm 6.0 4.5 3.0 81 1.3 CALM 0 6 0 3 1027.6 - 0.0
22/09:30pm 7.5 4.9 3.4 75 1.8 SSE 6 9 3 5 1027.4 - 0.0
22/09:00pm 10.0 7.1 4.4 68 2.5 SSE 9 11 5 6 1027.1 1027.3 0.0
22/08:30pm 10.2 7.3 4.8 69 2.5 SE 9 11 5 6 1026.8 - 0.0
22/08:00pm 10.4 7.5 4.8 68 2.6 SE 9 11 5 6 1026.5 - 0.0
22/07:30pm 10.7 7.9 5.0 68 2.6 SSE 9 11 5 6 1026.3 - 0.0
22/07:00pm 11.0 7.8 5.3 68 2.7 SSE 11 15 6 8 1026.1 - 0.0
22/06:30pm 11.5 8.8 5.6 67 2.8 SE 9 11 5 6 1025.7 - 0.0
22/06:00pm 11.9 8.6 6.2 68 2.7 S 13 15 7 8 1025.1 1025.2 0.0
22/05:30pm 12.2 8.9 6.5 68 2.8 S 13 15 7 8 1024.7 - 0.0
22/05:00pm 13.4 9.6 6.0 61 3.6 S 15 17 8 9 1024.4 - 0.0
22/04:30pm 15.1 10.4 5.0 51 4.8 SSE 19 26 10 14 1024.2 - 0.0
22/04:00pm 15.1 10.0 6.1 55 4.4 S 22 28 12 15 1024.0 - 0.0
22/03:30pm 15.8 10.1 4.8 48 5.3 S 24 33 13 18 1023.8 - 0.0
22/03:00pm 16.3 10.6 5.0 47 5.4 SSE 24 33 13 18 1023.4 1023.5 0.0
22/02:30pm 16.2 10.7 5.8 50 5.1 SSE 24 33 13 18 1022.9 - 0.0
22/02:00pm 16.9 11.0 5.8 48 5.5 SE 26 37 14 20 1022.5 - 0.0
22/01:30pm 16.0 11.1 6.7 54 4.6 SSE 22 39 12 21 1022.5 - 0.0
22/01:00pm 15.4 9.3 6.7 56 4.3 S 28 35 15 19 1022.4 - 0.0
22/12:30pm 14.9 8.5 7.0 59 3.9 S 30 41 16 22 1022.3 - 0.0
22/12:00pm 14.9 8.2 7.5 61 3.7 S 32 41 17 22 1022.5 1022.7 0.0
22/11:30am 15.0 8.3 7.5 61 3.8 S 32 43 17 23 1022.4 - 0.0
22/11:00am 14.8 10.9 8.5 66 3.2 SSE 19 26 10 14 1022.4 - 0.0
22/10:30am 14.4 10.0 8.8 69 2.9 S 22 32 12 17 1022.3 - 0.0
22/10:00am 13.3 9.1 8.4 72 2.5 S 20 30 11 16 1022.1 - 0.0
22/09:30am 13.1 8.9 8.4 73 2.4 S 20 28 11 15 1022.0 - 0.0
22/09:00am 12.2 7.9 7.9 75 2.1 S 20 28 11 15 1022.0 1022.1 0.0
22/08:30am 12.1 9.1 7.8 75 2.1 S 13 24 7 13 1021.7 - 0.0
22/08:00am 11.4 8.4 7.5 77 1.9 S 13 15 7 8 1021.2 - 0.0
22/07:30am 10.6 7.1 7.3 80 1.6 S 15 17 8 9 1021.1 - 0.0
22/07:00am 10.3 6.8 7.2 81 1.5 SSW 15 19 8 10 1020.7 - 0.0
22/06:30am 10.0 6.5 7.3 83 1.3 S 15 17 8 9 1020.4 - 0.0
22/06:00am 9.9 6.9 7.7 86 1.1 S 13 15 7 8 1020.0 1020.1 0.0
22/05:30am 9.3 6.4 6.7 84 1.2 S 11 13 6 7 1019.4 - 0.0
22/05:00am 9.5 7.1 6.9 84 1.2 SSE 9 11 5 6 1019.3 - 0.0
22/04:30am 8.6 6.1 6.7 88 0.9 S 9 11 5 6 1019.1 - 0.0
22/04:00am 9.3 7.3 7.3 87 1.0 S 7 9 4 5 1018.9 - 0.0
22/03:30am 8.9 6.4 6.7 86 1.0 S 9 11 5 6 1018.8 - 0.0
22/03:00am 9.4 6.6 6.8 84 1.2 S 11 13 6 7 1019.0 1019.2 0.0
22/02:30am 9.8 6.7 7.2 84 1.3 S 13 17 7 9 1019.0 - 0.0
22/02:00am 10.1 6.6 7.3 83 1.4 S 15 17 8 9 1019.0 - 0.0
22/01:30am 11.1 6.9 7.6 79 1.7 S 19 22 10 12 1018.9 - 0.0
22/01:00am 10.6 7.2 7.7 82 1.4 S 15 19 8 10 1019.0 - 0.0
22/12:30am 10.4 8.1 7.3 81 1.5 S 9 13 5 7 1019.4 - 0.0
22/12:00am 10.1 8.1 7.3 83 1.4 S 7 11 4 6 1019.4 1019.6 0.0
 
Date/Time
EST
Temp
°C
App
Temp
°C
Dew
Point
Rel
Hum
%
Delta-T
°C
Wind Press
QNH
hPa
Press
MSL
hPa
Rain
since 9 am
mm
Dir
 
Spd
km/h
Gust
km/h
Spd
kts
Gust
kts
21/11:30pm 10.1 7.0 7.2 82 1.4 S 13 15 7 8 1019.4 - 0.0
21/11:00pm 9.8 6.2 6.9 82 1.4 S 15 17 8 9 1019.4 - 0.0
21/10:30pm 9.7 6.9 6.8 82 1.4 S 11 15 6 8 1019.6 - 0.0
21/10:00pm 10.2 7.0 6.7 79 1.7 S 13 17 7 9 1019.4 - 0.0
21/09:30pm 10.1 8.1 7.0 81 1.5 S 7 11 4 6 1019.4 - 0.0
21/09:00pm 10.8 7.7 7.3 79 1.7 S 13 17 7 9 1019.2 1019.5 0.0
21/08:30pm 10.7 10.1 7.6 81 1.5 CALM 0 4 0 2 1019.1 - 0.0
21/08:00pm 9.9 8.1 7.3 84 1.3 ENE 6 7 3 4 1018.9 - 0.0
21/07:30pm 11.1 9.1 8.5 84 1.3 S 9 11 5 6 1018.8 - 0.0
21/07:00pm 10.8 10.4 8.2 84 1.3 CALM 0 6 0 3 1019.1 - 0.0
21/06:30pm 11.3 10.6 7.0 75 2.1 CALM 0 0 0 0 1019.0 - 0.0
21/06:00pm 12.4 10.2 7.9 74 2.2 S 9 13 5 7 1018.7 1018.9 0.0
21/05:30pm 12.8 10.3 8.1 73 2.4 S 11 13 6 7 1018.4 - 0.0
21/05:00pm 13.3 11.7 8.6 73 2.4 S 7 9 4 5 1018.6 - 0.0
21/04:30pm 13.3 10.6 8.8 74 2.3 WSW 13 15 7 8 1018.6 - 0.0
21/04:00pm 13.5 9.5 8.4 71 2.6 WSW 19 20 10 11 1018.6 - 0.0
21/03:30pm 15.0 12.7 7.5 61 3.8 S 9 17 5 9 1018.5 - 0.0
21/03:00pm 15.2 13.4 8.0 62 3.7 SSE 7 11 4 6 1018.5 1018.7 0.0
21/02:30pm 15.1 12.8 7.6 61 3.8 SSE 9 13 5 7 1018.5 - 0.0
21/02:00pm 15.0 12.4 7.8 62 3.6 SSE 11 15 6 8 1018.6 - 0.0
21/01:30pm 15.4 13.9 8.6 64 3.5 S 6 11 3 6 1018.7 - 0.0

Other Formats:

Comma delimited format used in spreadsheet applications
http://www.bom.gov.au/fwo/IDN60801/IDN60801.95721.axf

JavaScript Object Notation format (JSON) in row-major order
http://www.bom.gov.au/fwo/IDN60801/IDN60801.95721.json